Time;durP1;ratioP1;P1;durP2;ratioP2;P2;SDS_P1;SDS_P2;PMS_P1;PMS_P2;Temp;Humidity;BMP_temperature;BMP_pressure;BME280_temperature;BME280_humidity;BME280_pressure;Samples;Min_cycle;Max_cycle;Signal;HPM_P1;HPM_P2
2022/07/17 00:01:19;;;;;;;14.18;6.70;;;;;;;17.89;100.00;99936.43;1789979;80;21541;-79
2022/07/17 00:03:46;;;;;;;10.03;5.95;;;;;;;17.85;100.00;99936.00;1757411;82;21002;-79
2022/07/17 00:06:14;;;;;;;11.60;6.70;;;;;;;17.84;100.00;99931.04;1757099;82;21074;-79
2022/07/17 00:08:42;;;;;;;13.32;6.12;;;;;;;17.82;100.00;99944.10;1757121;81;21498;-78
2022/07/17 00:11:08;;;;;;;11.75;6.10;;;;;;;17.80;100.00;99935.83;1757336;82;21064;-78
2022/07/17 00:13:35;;;;;;;12.15;5.78;;;;;;;17.75;100.00;99936.47;1757451;82;21013;-78
2022/07/17 00:16:02;;;;;;;11.30;6.05;;;;;;;17.71;100.00;99932.52;1757133;81;21045;-79
2022/07/17 00:18:29;;;;;;;12.37;6.20;;;;;;;17.69;100.00;99937.38;1756999;82;21488;-79
2022/07/17 00:20:56;;;;;;;11.18;6.17;;;;;;;17.66;100.00;99937.80;1757346;82;21037;-78
2022/07/17 00:23:23;;;;;;;11.18;5.92;;;;;;;17.62;100.00;99927.01;1757503;81;21463;-78
2022/07/17 00:25:49;;;;;;;12.43;5.85;;;;;;;17.59;100.00;99929.64;1757523;82;21117;-79
2022/07/17 00:28:16;;;;;;;13.45;5.62;;;;;;;17.55;100.00;99918.84;1757397;82;20997;-78
2022/07/17 00:30:43;;;;;;;9.20;5.55;;;;;;;17.53;100.00;99922.33;1757062;82;21034;-78
2022/07/17 00:33:10;;;;;;;10.88;5.40;;;;;;;17.48;100.00;99919.41;1757074;82;21010;-79
2022/07/17 00:35:37;;;;;;;10.65;5.03;;;;;;;17.44;100.00;99908.08;1757368;82;21009;-79
2022/07/17 00:38:04;;;;;;;11.93;5.50;;;;;;;17.44;100.00;99908.08;1757217;82;21547;-78
2022/07/17 00:40:31;;;;;;;10.08;5.20;;;;;;;17.43;100.00;99905.56;1757302;82;21009;-78
2022/07/17 00:42:58;;;;;;;7.95;5.08;;;;;;;17.38;100.00;99900.74;1757531;82;21050;-79
2022/07/17 00:45:25;;;;;;;9.33;4.87;;;;;;;17.37;100.00;99900.95;1757362;81;21051;-79
2022/07/17 00:48:01;;;;;;;10.40;4.25;;;;;;;17.35;100.00;99905.30;1757360;81;20977;-79
2022/07/17 00:50:36;;;;;;;8.13;4.03;;;;;;;17.34;100.00;99906.34;1757337;81;21053;-78
2022/07/17 00:53:03;;;;;;;7.10;4.17;;;;;;;17.35;100.00;99905.30;1757639;81;21021;-78
2022/07/17 00:55:30;;;;;;;7.08;4.30;;;;;;;17.36;100.00;99904.23;1756807;81;21010;-78
2022/07/17 00:57:56;;;;;;;7.78;4.50;;;;;;;17.37;100.00;99906.42;1755124;82;21018;-79
2022/07/17 01:00:23;;;;;;;6.60;4.00;;;;;;;17.36;100.00;99904.77;1755456;82;21013;-78
2022/07/17 01:02:52;;;;;;;6.35;4.03;;;;;;;17.35;100.00;99905.81;1755160;81;21069;-79
2022/07/17 01:05:19;;;;;;;7.50;4.15;;;;;;;17.34;100.00;99901.42;1755287;82;21053;-79
2022/07/17 01:07:46;;;;;;;5.95;3.80;;;;;;;17.31;100.00;99902.67;1755473;82;21483;-79
2022/07/17 01:10:14;;;;;;;6.47;3.90;;;;;;;17.30;100.00;99902.89;1755173;81;21432;-80
2022/07/17 01:12:41;;;;;;;7.30;3.70;;;;;;;17.27;100.00;99900.91;1755347;82;21026;-79
2022/07/17 01:15:10;;;;;;;4.50;3.40;;;;;;;17.26;100.00;99897.02;1755244;82;21029;-79
2022/07/17 01:17:38;;;;;;;4.12;3.40;;;;;;;17.24;100.00;99899.14;1755137;81;21052;-79
2022/07/17 01:20:08;;;;;;;6.85;3.83;;;;;;;17.22;100.00;99893.89;1755455;82;21033;-80
2022/07/17 01:22:49;;;;;;;7.55;3.90;;;;;;;17.23;100.00;99892.02;1755472;82;21010;-80
2022/07/17 01:25:19;;;;;;;6.50;3.80;;;;;;;17.23;100.00;99889.29;1755422;82;20989;-79
2022/07/17 01:27:46;;;;;;;5.33;3.60;;;;;;;17.23;100.00;99886.55;1755285;82;20985;-80
2022/07/17 01:30:13;;;;;;;5.20;3.50;;;;;;;17.22;100.00;99888.43;1755379;82;21018;-79
2022/07/17 01:32:41;;;;;;;8.60;3.50;;;;;;;17.21;100.00;99891.38;1755201;82;20986;-79
2022/07/17 01:35:13;;;;;;;5.55;3.60;;;;;;;17.21;100.00;99889.50;1755332;81;21100;-80
2022/07/17 01:37:42;;;;;;;5.08;3.60;;;;;;;17.23;100.00;99898.85;1755551;82;21018;-80
2022/07/17 01:40:12;;;;;;;8.55;3.92;;;;;;;17.22;100.00;99897.99;1755188;82;21551;-80
2022/07/17 01:42:48;;;;;;;5.20;3.55;;;;;;;17.22;100.00;99907.55;1755248;82;21061;-79
2022/07/17 01:45:18;;;;;;;10.60;3.85;;;;;;;17.23;100.00;99905.69;1755001;82;21033;-79
2022/07/17 01:47:45;;;;;;;7.47;4.12;;;;;;;17.22;100.00;99915.75;1755011;81;21029;-80
2022/07/17 01:50:14;;;;;;;5.92;3.50;;;;;;;17.21;100.00;99918.19;1755212;82;21034;-79
2022/07/17 01:52:43;;;;;;;5.47;3.37;;;;;;;17.19;100.00;99916.21;1755328;81;21029;-80
2022/07/17 01:55:13;;;;;;;9.48;3.37;;;;;;;17.18;100.00;99919.16;1755116;81;21072;-79
2022/07/17 01:57:41;;;;;;;5.83;3.22;;;;;;;17.15;100.00;99919.05;1755523;82;21022;-79
2022/07/17 02:00:14;;;;;;;5.67;3.52;;;;;;;17.13;100.00;99922.52;1755307;82;21045;-80
2022/07/17 02:02:41;;;;;;;4.42;3.45;;;;;;;17.10;100.00;99924.86;1729545;82;21041;-80
2022/07/17 02:05:09;;;;;;;5.83;3.12;;;;;;;17.06;100.00;99937.57;1738361;82;21006;-79
2022/07/17 02:07:39;;;;;;;4.03;3.05;;;;;;;17.04;100.00;99933.39;1738296;82;21038;-80
2022/07/17 02:10:09;;;;;;;6.17;3.25;;;;;;;17.03;100.00;99935.30;1738228;82;20971;-80
2022/07/17 02:12:36;;;;;;;4.53;3.12;;;;;;;17.02;100.00;99934.14;1723692;83;21541;-79
2022/07/17 02:15:06;;;;;;;6.90;3.10;;;;;;;17.00;100.00;99937.08;1723625;82;21079;-79
2022/07/17 02:17:33;;;;;;;7.03;3.37;;;;;;;16.99;100.00;99939.48;1724007;82;21053;-79
2022/07/17 02:20:00;;;;;;;6.70;3.67;;;;;;;16.97;100.00;99932.05;1723530;83;21058;-79
2022/07/17 02:22:27;;;;;;;5.17;3.40;;;;;;;16.98;100.00;99935.61;1723607;83;21054;-80
2022/07/17 02:24:54;;;;;;;5.72;3.30;;;;;;;16.98;100.00;99929.64;1723946;83;21050;-79
2022/07/17 02:27:21;;;;;;;8.15;3.40;;;;;;;16.99;100.00;99923.10;1726746;80;21042;-80
2022/07/17 02:29:49;;;;;;;3.27;2.83;;;;;;;17.01;100.00;99924.26;1727253;83;21048;-79
2022/07/17 02:32:16;;;;;;;5.45;3.17;;;;;;;17.03;100.00;99928.97;1724887;83;21055;-78
2022/07/17 02:34:44;;;;;;;3.60;3.00;;;;;;;17.02;100.00;99927.31;1723911;83;21536;-79
2022/07/17 02:37:11;;;;;;;4.78;3.05;;;;;;;17.03;100.00;99924.37;1723608;83;21046;-79
2022/07/17 02:39:51;;;;;;;5.28;3.33;;;;;;;17.05;100.00;99931.81;1723997;83;21527;-78
2022/07/17 02:42:08;;;;;;;3.77;3.22;;;;;;;17.04;100.00;99927.39;1720593;83;21057;-79
2022/07/17 02:44:36;;;;;;;5.12;3.22;;;;;;;17.05;100.00;99926.35;1723471;83;21113;-80
2022/07/17 02:47:02;;;;;;;4.75;3.10;;;;;;;17.06;100.00;99928.55;1723641;83;21034;-80
2022/07/17 02:49:29;;;;;;;3.72;3.08;;;;;;;17.07;100.00;99928.88;1723950;83;21026;-79
2022/07/17 02:51:56;;;;;;;5.40;3.35;;;;;;;17.12;100.00;99929.03;1723749;83;21038;-79
2022/07/17 02:54:24;;;;;;;5.55;3.10;;;;;;;17.16;100.00;99939.03;1723986;83;20987;-79
2022/07/17 02:56:51;;;;;;;5.17;3.30;;;;;;;17.20;100.00;99936.16;1723729;83;21023;-79
2022/07/17 02:59:17;;;;;;;6.03;3.10;;;;;;;17.24;100.00;99937.40;1723843;83;21563;-79
2022/07/17 03:01:44;;;;;;;5.37;3.40;;;;;;;17.27;100.00;99932.33;1723897;83;21089;-79
2022/07/17 03:04:11;;;;;;;5.72;3.65;;;;;;;17.32;100.00;99928.13;1745917;82;21548;-79
2022/07/17 03:06:38;;;;;;;3.62;3.00;;;;;;;17.35;100.00;99924.94;1737786;82;21099;-79
2022/07/17 03:09:05;;;;;;;3.52;3.20;;;;;;;17.42;100.00;99932.57;1754840;80;21035;-79
2022/07/17 03:11:33;;;;;;;5.12;3.15;;;;;;;17.46;100.00;99931.10;1787690;80;20993;-79
2022/07/17 03:14:00;;;;;;;9.60;3.40;;;;;;;17.49;100.00;99925.71;1761276;80;20989;-79
2022/07/17 03:16:27;;;;;;;8.38;3.40;;;;;;;17.50;100.00;99921.94;1787984;80;21031;-79
2022/07/17 03:18:54;;;;;;;4.85;3.40;;;;;;;17.53;100.00;99916.00;1787692;80;21533;-78
2022/07/17 03:21:21;;;;;;;4.50;3.20;;;;;;;17.55;100.00;99905.72;1787488;80;21562;-78
2022/07/17 03:23:48;;;;;;;6.55;3.40;;;;;;;17.59;100.00;99911.04;1787889;80;21031;-79
2022/07/17 03:26:15;;;;;;;4.80;3.35;;;;;;;17.63;100.00;99905.42;1787731;80;21040;-79
2022/07/17 03:28:42;;;;;;;6.40;3.60;;;;;;;17.68;100.00;99902.05;1787991;80;21036;-78
2022/07/17 03:31:09;;;;;;;5.87;3.50;;;;;;;17.72;100.00;99898.62;1787616;80;21064;-79
2022/07/17 03:33:35;;;;;;;6.55;3.33;;;;;;;17.76;100.00;99903.13;1787655;80;21060;-79
2022/07/17 03:36:02;;;;;;;6.60;3.87;;;;;;;17.81;100.00;99902.79;1787894;80;21482;-79
2022/07/17 03:38:29;;;;;;;4.75;3.25;;;;;;;17.87;100.00;99898.36;1761295;80;20988;-77
2022/07/17 03:40:56;;;;;;;4.37;3.27;;;;;;;17.93;100.00;99894.72;1787971;80;21052;-79
2022/07/17 03:43:23;;;;;;;7.83;3.92;;;;;;;18.02;100.00;99899.38;1787971;80;21012;-79
2022/07/17 03:45:50;;;;;;;4.30;3.40;;;;;;;18.10;100.00;99895.55;1787808;80;21013;-77
2022/07/17 03:48:16;;;;;;;6.17;3.45;;;;;;;18.18;100.00;99902.94;1787896;80;21052;-78
2022/07/17 03:50:44;;;;;;;4.83;3.05;;;;;;;18.27;100.00;99906.74;1787596;80;21522;-78
2022/07/17 03:53:11;;;;;;;4.70;3.20;;;;;;;18.33;100.00;99904.48;1787537;80;21071;-78
2022/07/17 03:55:40;;;;;;;5.90;3.40;;;;;;;18.38;100.00;99895.07;1785461;80;21052;-79
2022/07/17 03:58:07;;;;;;;4.25;3.20;;;;;;;18.46;100.00;99898.03;1778666;81;20993;-78
2022/07/17 04:00:34;;;;;;;5.67;3.30;;;;;;;18.52;100.00;99894.37;1778787;80;20988;-79
2022/07/17 04:03:02;;;;;;;6.35;3.27;;;;;;;18.61;100.00;99891.67;1776427;80;21072;-78
2022/07/17 04:05:29;;;;;;;7.65;3.77;;;;;;;18.68;100.00;99893.80;1772305;80;21049;-77
2022/07/17 04:07:56;;;;;;;10.10;4.20;;;;;;;18.80;100.00;99899.33;1772287;81;21543;-77
2022/07/17 04:10:23;;;;;;;9.00;4.45;;;;;;;18.90;100.00;99892.82;1772101;80;21551;-78
2022/07/17 04:12:50;;;;;;;10.23;4.65;;;;;;;19.01;100.00;99889.84;1772311;81;21033;-78
2022/07/17 04:15:49;;;;;;;11.85;4.60;;;;;;;19.14;100.00;99896.53;1771931;80;21064;-78
2022/07/17 04:17:46;;;;;;;11.18;3.80;;;;;;;19.29;100.00;99904.88;1768755;81;20990;-78
2022/07/17 04:20:13;;;;;;;9.43;3.98;;;;;;;19.41;100.00;99892.59;1772042;80;21052;-78
2022/07/17 04:22:40;;;;;;;6.47;3.75;;;;;;;19.54;100.00;99906.92;1772251;81;21040;-78
2022/07/17 04:25:08;;;;;;;13.13;6.70;;;;;;;19.67;100.00;99900.44;1771984;80;21020;-77
2022/07/17 04:27:35;;;;;;;18.82;11.10;;;;;;;19.80;100.00;99904.08;1772416;81;21020;-76
2022/07/17 04:30:02;;;;;;;13.88;9.70;;;;;;;19.95;100.00;99913.22;1772113;81;20997;-77
2022/07/17 04:32:30;;;;;;;11.80;5.62;;;;;;;20.14;100.00;99913.42;1772471;81;21566;-77
2022/07/17 04:34:56;;;;;;;9.40;4.40;;;;;;;20.34;100.00;99917.73;1772351;80;21001;-78
2022/07/17 04:37:24;;;;;;;5.55;3.45;;;;;;;20.56;100.00;99916.61;1772273;80;21026;-77
2022/07/17 04:39:51;;;;;;;6.22;3.47;;;;;;;20.77;100.00;99917.91;1772204;81;21463;-78
2022/07/17 04:42:18;;;;;;;5.90;3.67;;;;;;;20.98;100.00;99920.55;1772487;81;21013;-78
2022/07/17 04:44:44;;;;;;;6.05;3.40;;;;;;;21.17;100.00;99909.68;1772401;80;20969;-79
2022/07/17 04:47:11;;;;;;;8.98;3.40;;;;;;;21.37;100.00;99915.29;1772391;80;21020;-77
2022/07/17 04:49:37;;;;;;;6.33;3.52;;;;;;;21.57;100.00;99908.84;1772270;81;21017;-77
2022/07/17 04:52:04;;;;;;;5.12;3.42;;;;;;;21.75;100.00;99912.46;1772524;81;21008;-78
2022/07/17 04:54:31;;;;;;;7.25;3.42;;;;;;;21.92;100.00;99917.45;1772407;81;21079;-78
2022/07/17 04:56:59;;;;;;;6.05;3.50;;;;;;;22.07;100.00;99913.28;1772181;80;21022;-79
2022/07/17 04:59:25;;;;;;;6.03;3.30;;;;;;;22.22;100.00;99921.77;1772478;81;21001;-79
2022/07/17 05:01:52;;;;;;;4.92;3.20;;;;;;;22.41;100.00;99922.93;1772278;80;21071;-79
2022/07/17 05:04:19;;;;;;;6.50;2.95;;;;;;;22.56;100.00;99923.99;1772443;80;21025;-79
2022/07/17 05:06:46;;;;;;;6.00;3.37;;;;;;;22.73;100.00;99927.25;1772419;81;20982;-78
2022/07/17 05:09:13;;;;;;;3.90;3.00;;;;;;;22.90;100.00;99925.84;1772479;81;21039;-80
2022/07/17 05:11:40;;;;;;;3.75;3.00;;;;;;;23.07;100.00;99926.65;1772190;80;20985;-78
2022/07/17 05:14:08;;;;;;;7.78;3.17;;;;;;;23.26;100.00;99927.13;1772396;80;21083;-78
2022/07/17 05:16:35;;;;;;;4.58;3.00;;;;;;;23.50;100.00;99929.62;1772306;81;21076;-78
2022/07/17 05:19:02;;;;;;;8.80;3.70;;;;;;;23.68;100.00;99925.11;1772500;81;20989;-79
2022/07/17 05:21:29;;;;;;;7.55;3.50;;;;;;;23.76;100.00;99936.77;1772103;81;21547;-78
2022/07/17 05:23:58;;;;;;;8.35;4.05;;;;;;;23.77;100.00;99925.47;1772118;80;21076;-77
2022/07/17 05:26:25;;;;;;;8.98;3.98;;;;;;;23.89;100.00;99922.59;1772395;81;20965;-77
2022/07/17 05:28:51;;;;;;;11.20;4.95;;;;;;;24.06;100.00;99925.20;1772465;81;21009;-77
2022/07/17 05:31:20;;;;;;;11.38;4.25;;;;;;;24.26;100.00;99930.91;1772423;80;21017;-78
2022/07/17 05:33:47;;;;;;;10.25;3.65;;;;;;;24.51;100.00;99936.89;1772141;81;21036;-77
2022/07/17 05:36:13;;;;;;;6.00;3.25;;;;;;;24.67;100.00;99929.00;1772443;81;21011;-77
2022/07/17 05:38:41;;;;;;;6.25;3.05;;;;;;;24.89;100.00;99922.48;1772142;80;21037;-77
2022/07/17 05:41:09;;;;;;;5.97;3.00;;;;;;;25.13;100.00;99918.73;1772057;80;21554;-77
2022/07/17 05:43:36;;;;;;;4.47;3.02;;;;;;;25.37;100.00;99924.63;1774368;81;21012;-77
2022/07/17 05:46:02;;;;;;;4.03;2.90;;;;;;;25.50;100.00;99939.35;1775458;81;21076;-77
2022/07/17 05:48:30;;;;;;;5.08;3.30;;;;;;;25.46;100.00;99950.70;1772877;81;20998;-78
2022/07/17 05:50:57;;;;;;;6.42;3.05;;;;;;;25.52;100.00;99941.85;1772364;80;20965;-77
2022/07/17 05:53:24;;;;;;;7.35;3.35;;;;;;;25.64;100.00;99932.75;1772003;81;21021;-77
2022/07/17 05:55:51;;;;;;;5.97;2.92;;;;;;;25.84;100.00;99914.50;1779491;80;21000;-78
2022/07/17 05:58:17;;;;;;;5.97;3.22;;;;;;;26.03;100.00;99908.73;1791916;80;21004;-78
2022/07/17 06:00:44;;;;;;;7.42;3.52;;;;;;;26.21;100.00;99917.59;1791869;80;21004;-77
2022/07/17 06:03:11;;;;;;;7.03;3.25;;;;;;;26.43;100.00;99922.82;1791565;79;21079;-77
2022/07/17 06:05:39;;;;;;;3.60;2.62;;;;;;;26.64;100.00;99923.64;1791611;80;21099;-78
2022/07/17 06:08:06;;;;;;;4.08;2.80;;;;;;;26.83;100.00;99933.59;1791719;80;21008;-76
2022/07/17 06:10:35;;;;;;;4.00;2.85;;;;;;;26.99;100.00;99937.15;1791709;80;21486;-76
2022/07/17 06:13:02;;;;;;;4.28;2.77;;;;;;;27.11;100.00;99943.20;1791697;80;21507;-77
2022/07/17 06:15:29;;;;;;;5.45;2.87;;;;;;;27.19;100.00;99949.53;1791792;80;21012;-77
2022/07/17 06:18:01;;;;;;;2.85;2.50;;;;;;;27.27;100.00;99947.60;1739986;82;21042;-76
2022/07/17 06:20:28;;;;;;;5.65;2.85;;;;;;;27.40;100.00;99946.14;1740402;82;21022;-76
2022/07/17 06:22:55;;;;;;;3.95;2.40;;;;;;;27.62;100.00;99949.92;1740173;82;21391;-76
2022/07/17 06:25:21;;;;;;;3.30;2.60;;;;;;;27.83;100.00;99942.83;1740282;82;21014;-77
2022/07/17 06:27:50;;;;;;;3.87;2.45;;;;;;;28.05;100.00;99942.97;1739968;82;21050;-76
2022/07/17 06:30:17;;;;;;;3.10;2.47;;;;;;;28.27;100.00;99938.36;1740240;82;21014;-76
2022/07/17 06:32:44;;;;;;;4.05;2.37;;;;;;;28.47;100.00;99942.33;1740325;82;21065;-78
2022/07/17 06:35:11;;;;;;;4.10;2.58;;;;;;;28.55;100.00;99953.42;1739963;82;21011;-77
2022/07/17 06:37:37;;;;;;;5.80;2.75;;;;;;;28.55;100.00;99960.38;1740045;82;21003;-77
2022/07/17 06:40:06;;;;;;;3.27;2.50;;;;;;;28.43;100.00;99964.08;1740327;82;21042;-77
2022/07/17 06:42:33;;;;;;;5.08;2.98;;;;;;;28.21;100.00;99968.16;1740053;82;21093;-76
2022/07/17 06:45:00;;;;;;;2.70;2.37;;;;;;;27.99;100.00;99963.88;1740193;82;21054;-77
2022/07/17 06:47:27;;;;;;;4.05;2.62;;;;;;;27.81;100.00;99952.02;1739977;82;21054;-77
2022/07/17 06:49:54;;;;;;;7.00;2.70;;;;;;;27.67;100.00;99955.98;1740117;82;21034;-77
2022/07/17 06:52:20;;;;;;;3.25;2.80;;;;;;;27.57;100.00;99961.06;1740104;82;21018;-77
2022/07/17 06:54:47;;;;;;;3.20;2.50;;;;;;;27.48;100.00;99971.08;1740288;82;21066;-77
2022/07/17 06:57:14;;;;;;;4.35;2.70;;;;;;;27.41;100.00;99980.28;1739915;82;21009;-76
2022/07/17 06:59:41;;;;;;;2.62;2.40;;;;;;;27.31;100.00;99989.50;1739997;82;21062;-76
2022/07/17 07:02:08;;;;;;;4.58;2.58;;;;;;;27.17;100.00;99996.73;1739844;82;21029;-77
2022/07/17 07:04:35;;;;;;;4.08;2.80;;;;;;;26.99;100.00;99987.91;1737692;82;21129;-76
2022/07/17 07:07:02;;;;;;;2.87;2.60;;;;;;;26.82;100.00;99987.39;1761710;81;20995;-77
2022/07/17 07:09:29;;;;;;;3.52;2.40;;;;;;;26.60;100.00;99995.44;1761784;81;21146;-77
2022/07/17 07:11:56;;;;;;;5.30;2.80;;;;;;;26.31;100.00;100006.24;1761781;81;21062;-77
2022/07/17 07:14:24;;;;;;;3.15;2.80;;;;;;;26.01;100.00;100004.28;1761726;81;20979;-78
2022/07/17 07:16:53;;;;;;;2.58;2.37;;;;;;;25.70;100.00;99996.70;1761634;81;21524;-77
2022/07/17 07:19:20;;;;;;;3.72;2.60;;;;;;;25.44;100.00;99981.95;1761970;81;20990;-77
2022/07/17 07:21:47;;;;;;;4.20;2.85;;;;;;;25.21;100.00;99969.37;1761739;81;21070;-77
2022/07/17 07:24:14;;;;;;;4.53;2.50;;;;;;;25.01;100.00;99965.41;1761991;81;21010;-77
2022/07/17 07:26:41;;;;;;;2.87;2.60;;;;;;;24.85;100.00;99969.20;1761655;81;21023;-76
2022/07/17 07:29:08;;;;;;;5.03;2.70;;;;;;;24.70;100.00;99978.77;1761585;81;21046;-78
2022/07/17 07:31:36;;;;;;;4.67;2.47;;;;;;;24.52;100.00;99981.38;1761653;81;21131;-78
2022/07/17 07:34:04;;;;;;;4.20;2.70;;;;;;;24.35;100.00;99967.73;1761813;81;21023;-76
2022/07/17 07:36:31;;;;;;;3.40;2.50;;;;;;;24.31;100.00;99978.48;1761859;81;21047;-77
2022/07/17 07:38:58;;;;;;;3.02;2.72;;;;;;;24.35;100.00;99973.25;1761898;81;21074;-78
2022/07/17 07:41:25;;;;;;;7.53;4.70;;;;;;;24.42;100.00;99980.20;1761926;81;21038;-77
2022/07/17 07:43:52;;;;;;;15.08;6.28;;;;;;;24.57;100.00;99975.92;1761665;81;21023;-76
2022/07/17 07:46:19;;;;;;;10.85;5.67;;;;;;;24.69;100.00;99978.50;1761710;81;21486;-76
2022/07/17 07:48:46;;;;;;;8.60;5.45;;;;;;;24.80;100.00;99982.43;1761868;81;21007;-77
2022/07/17 07:51:13;;;;;;;12.00;6.28;;;;;;;24.92;100.00;99973.11;1761930;81;21065;-77
2022/07/17 07:53:39;;;;;;;9.63;5.80;;;;;;;24.97;100.00;99973.97;1761654;81;21062;-78
2022/07/17 07:56:07;;;;;;;10.08;6.22;;;;;;;24.94;100.00;99981.41;1759645;81;21010;-78
2022/07/17 07:58:34;;;;;;;11.05;6.50;;;;;;;24.86;100.00;99986.08;1756516;82;21038;-78
2022/07/17 08:01:01;;;;;;;12.20;6.55;;;;;;;24.79;100.00;99986.87;1756941;82;21038;-77
2022/07/17 08:03:28;;;;;;;10.38;6.47;;;;;;;24.75;100.00;99992.07;1756347;81;21081;-77
2022/07/17 08:05:55;;;;;;;10.15;6.10;;;;;;;24.74;100.00;99990.42;1750822;82;21494;-77
2022/07/17 08:08:21;;;;;;;10.68;6.28;;;;;;;24.78;100.00;99997.63;1750945;82;21043;-78
2022/07/17 08:10:48;;;;;;;11.78;6.67;;;;;;;24.83;100.00;100008.17;1750967;82;21034;-75
2022/07/17 08:13:16;;;;;;;13.22;6.83;;;;;;;24.86;100.00;100006.83;1751134;82;21003;-77
2022/07/17 08:15:44;;;;;;;10.48;6.47;;;;;;;24.82;100.00;100011.20;1750801;82;21031;-78
2022/07/17 08:18:10;;;;;;;11.60;6.30;;;;;;;24.67;100.00;99995.91;1750984;82;21015;-75
2022/07/17 08:20:38;;;;;;;12.50;6.75;;;;;;;24.52;100.00;99982.77;1750875;82;21039;-75
2022/07/17 08:23:05;;;;;;;16.35;7.37;;;;;;;24.41;100.00;99977.15;1751014;82;21011;-75
2022/07/17 08:25:31;;;;;;;14.30;7.92;;;;;;;24.31;100.00;99984.53;1751013;82;21031;-76
2022/07/17 08:27:58;;;;;;;19.12;8.10;;;;;;;24.17;100.00;99984.98;1751012;82;21612;-77
2022/07/17 08:30:25;;;;;;;12.33;7.30;;;;;;;24.04;100.00;99977.94;1751101;82;21027;-76
2022/07/17 08:32:52;;;;;;;13.53;7.12;;;;;;;23.91;100.00;99974.79;1750978;82;21529;-75
2022/07/17 08:35:19;;;;;;;10.95;6.80;;;;;;;23.81;100.00;99973.57;1750977;82;21046;-75
2022/07/17 08:37:48;;;;;;;13.03;6.80;;;;;;;23.69;100.00;99969.58;1750764;82;21039;-80
2022/07/17 08:40:19;;;;;;;13.88;6.65;;;;;;;23.55;100.00;99974.36;1751217;81;21450;-79
2022/07/17 08:42:46;;;;;;;12.45;6.53;;;;;;;23.40;100.00;99962.61;1609215;88;21049;-79
2022/07/17 08:45:13;;;;;;;11.30;6.42;;;;;;;23.30;100.00;99964.16;1608993;89;21108;-80
2022/07/17 08:47:41;;;;;;;13.48;7.10;;;;;;;23.26;100.00;99960.78;1609157;89;21068;-79
2022/07/17 08:50:10;;;;;;;18.50;8.15;;;;;;;23.28;100.00;99948.42;1609112;89;21077;-79
2022/07/17 08:52:39;;;;;;;17.37;8.70;;;;;;;23.31;100.00;99947.88;1533235;94;21103;-80
2022/07/17 08:55:13;;;;;;;18.17;9.23;;;;;;;23.36;100.00;99955.95;1533310;93;21092;-79
2022/07/17 08:57:43;;;;;;;16.60;8.08;;;;;;;23.34;100.00;99965.00;1555205;92;21145;-81
2022/07/17 09:00:18;;;;;;;13.98;6.70;;;;;;;23.32;100.00;99977.70;1555675;92;21084;-79
2022/07/17 09:03:01;;;;;;;9.08;5.22;;;;;;;23.31;100.00;99980.16;1569762;91;21635;-80
2022/07/17 09:05:30;;;;;;;;;;;;;;;23.30;100.00;99990.89;1571596;91;21165;-80
2022/07/17 09:07:57;;;;;;;7.30;4.72;;;;;;;23.34;100.00;99987.08;1595970;90;20120;-80
2022/07/17 09:10:39;;;;;;;9.18;4.78;;;;;;;23.34;100.00;99987.93;1596131;90;21163;-80
2022/07/17 09:16:10;;;;;;;10.68;4.85;;;;;;;23.36;100.00;99997.34;1495832;96;21169;-79
2022/07/17 09:18:57;;;;;;;8.48;4.50;;;;;;;23.41;100.00;99999.61;1484308;97;21157;-80
2022/07/17 09:21:27;;;;;;;10.18;3.90;;;;;;;23.50;100.00;100005.51;1484432;97;21122;-78
2022/07/17 09:24:03;;;;;;;5.22;3.90;;;;;;;23.60;100.00;100013.06;1484352;97;21232;-78
2022/07/17 09:26:33;;;;;;;7.60;3.80;;;;;;;23.66;100.00;100015.62;1484538;97;21478;-78
2022/07/17 09:29:03;;;;;;;6.78;3.98;;;;;;;23.76;100.00;100018.20;1466756;97;21188;-79
2022/07/17 09:31:32;;;;;;;6.35;4.05;;;;;;;23.73;100.00;100024.23;1484444;97;21122;-79
2022/07/17 09:33:59;;;;;;;6.50;4.12;;;;;;;23.60;100.00;100033.75;1484415;97;21672;-79
2022/07/17 09:36:26;;;;;;;6.20;3.90;;;;;;;23.50;100.00;100025.65;1484396;97;21105;-79
2022/07/17 09:38:54;;;;;;;7.67;3.70;;;;;;;23.39;100.00;100021.11;1493540;94;21051;-80
2022/07/17 09:41:22;;;;;;;6.67;3.30;;;;;;;23.29;100.00;100022.34;1529588;94;21095;-79
2022/07/17 09:43:58;;;;;;;7.65;3.60;;;;;;;23.20;100.00;100028.84;1510776;94;21160;-79
2022/07/17 09:46:31;;;;;;;8.55;3.50;;;;;;;23.14;100.00;100033.98;1529644;94;21125;-77
2022/07/17 09:49:04;;;;;;;5.62;3.40;;;;;;;23.01;100.00;100043.98;1533640;92;21144;-80
2022/07/17 09:51:34;;;;;;;6.53;3.20;;;;;;;22.87;100.00;100041.56;1557148;92;21138;-78
2022/07/17 09:54:04;;;;;;;5.00;3.10;;;;;;;22.76;100.00;100045.27;1510199;95;21565;-78
2022/07/17 09:56:34;;;;;;;6.37;3.25;;;;;;;22.66;100.00;100037.66;1544534;92;21080;-79
2022/07/17 09:59:11;;;;;;;4.62;3.58;;;;;;;22.63;100.00;100037.32;1568302;91;21043;-79
2022/07/17 10:01:40;;;;;;;5.87;4.00;;;;;;;22.59;100.00;100036.98;1526701;94;21136;-78
2022/07/17 10:04:07;;;;;;;6.95;3.70;;;;;;;22.54;100.00;100036.38;1549070;93;21073;-78
2022/07/17 10:06:34;;;;;;;11.95;4.28;;;;;;;22.54;100.00;100052.05;1597162;89;21151;-78
2022/07/17 10:09:02;;;;;;;7.58;4.25;;;;;;;22.48;100.00;100051.69;1611802;89;21071;-78
2022/07/17 10:11:33;;;;;;;9.13;4.00;;;;;;;22.36;100.00;100053.13;1611783;89;21123;-79
2022/07/17 10:14:06;;;;;;;4.72;3.50;;;;;;;22.31;100.00;100047.02;1612097;89;21147;-79
2022/07/17 10:16:38;;;;;;;3.85;3.30;;;;;;;22.30;100.00;100044.50;1505977;94;21237;-79
2022/07/17 10:19:15;;;;;;;5.75;3.65;;;;;;;22.29;100.00;100034.04;1545986;91;21595;-79
2022/07/17 10:22:02;;;;;;;7.22;4.00;;;;;;;22.33;100.00;100024.18;1573669;91;21608;-79
2022/07/17 10:24:30;;;;;;;7.42;4.40;;;;;;;22.49;100.00;100020.31;1574676;91;21057;-78
2022/07/17 10:26:58;;;;;;;11.55;4.60;;;;;;;22.74;100.00;100019.87;1555428;91;21590;-78
2022/07/17 10:29:36;;;;;;;9.58;4.87;;;;;;;23.03;100.00;100027.46;1574811;91;21121;-78
2022/07/17 10:32:11;;;;;;;12.58;6.03;;;;;;;23.32;100.00;100024.60;1575027;91;21037;-78
2022/07/17 10:34:45;;;;;;;8.15;4.42;;;;;;;23.57;100.00;100027.36;1571389;91;21096;-77
2022/07/17 10:37:23;;;;;;;12.23;5.80;;;;;;;23.67;100.00;100021.97;1575255;91;21097;-77
2022/07/17 10:40:13;;;;;;;10.48;5.10;;;;;;;23.72;100.00;100025.34;1575127;91;21663;-78
2022/07/17 10:42:49;;;;;;;10.85;5.25;;;;;;;23.68;100.00;100020.89;1575269;91;21049;-77
2022/07/17 10:45:19;;;;;;;10.15;5.58;;;;;;;23.63;100.00;100013.93;1575060;91;21097;-78
2022/07/17 10:47:57;;;;;;;8.93;5.70;;;;;;;23.52;100.00;100024.57;1575039;91;21133;-79
2022/07/17 10:50:40;;;;;;;9.55;5.00;;;;;;;23.44;100.00;100034.97;1590191;88;21089;-77
2022/07/17 10:56:03;;;;;;;11.75;5.60;;;;;;;23.15;100.00;100063.25;1598307;90;21140;-78
2022/07/17 10:58:32;;;;;;;10.05;4.87;;;;;;;22.90;100.00;100064.50;1598499;90;21023;-79
2022/07/17 11:01:13;;;;;;;5.70;4.17;;;;;;;22.66;100.00;100054.73;1574821;91;21097;-79
2022/07/17 11:03:55;;;;;;;7.33;4.03;;;;;;;22.46;100.00;100060.75;1549633;93;21137;-78
2022/07/17 11:06:27;;;;;;;3.77;3.27;;;;;;;22.26;100.00;100064.79;1539832;93;21078;-78
2022/07/17 11:09:13;;;;;;;4.55;3.00;;;;;;;22.09;100.00;100070.25;1548575;93;21101;-79
2022/07/17 11:11:46;;;;;;;6.97;3.20;;;;;;;21.94;100.00;100076.31;1564013;92;21070;-79
2022/07/17 11:14:14;;;;;;;;;;;;;;;21.72;100.00;100063.74;1621949;88;21099;-80
2022/07/17 11:16:51;;;;;;;4.37;3.08;;;;;;;21.52;100.00;100057.84;1622927;88;20566;-79
2022/07/17 11:22:00;;;;;;;4.83;3.40;;;;;;;21.15;100.00;100028.69;1586661;90;21444;-80
2022/07/17 11:24:40;;;;;;;7.60;3.62;;;;;;;20.98;100.00;100008.50;1586804;90;21537;-79
2022/07/17 11:27:08;;;;;;;7.90;3.40;;;;;;;20.85;100.00;99999.43;1511654;95;21117;-77
2022/07/17 11:29:39;;;;;;;5.42;3.37;;;;;;;20.76;100.00;99987.69;1493120;95;21074;-79
2022/07/17 11:32:07;;;;;;;7.35;4.12;;;;;;;20.67;100.00;99990.78;1511735;95;21509;-79
2022/07/17 11:34:35;;;;;;;13.70;5.80;;;;;;;20.64;100.00;99983.02;1511413;95;21489;-77
2022/07/17 11:37:05;;;;;;;10.70;5.90;;;;;;;20.59;100.00;99966.92;1511671;95;21027;-78